Germanville, Iowa
Current Conditions -  °F | °C
As of 12:35 PM on Thursday 30 Oct 2014 (Local Time) from KFFL Reporting Station
Clear Clear  
Wind Chill: 57°   Ceiling: Unl
Heat Index: 57°   Visibility: NA
Dew Point: 37°   Wind: 14mph
Humidity: 48%   Direction: 140°SE
Pressure: 30.02"   Gusts: 21mph
Location:  41.1253°N, 91.8296°W
Report Text: KFFL 301735Z AUTO 14012G18KT CLR 14/03 A3002 RMK AO2
Loading
Personal Weather Stations






























Interactive Weather Map
Tropical Storm Tracking
New forecast layout! Learn more

10-Day Weather Forecast

Advertisements
Track Severe Weather on mobile